sensor_id;sensor_type;location;lat;lon;timestamp;P1;durP1;ratioP1;P2;durP2;ratioP2
22579;SDS011;11456;47.030;15.396;2024-03-08T00:00:34;16.13;;;9.63;;
22579;SDS011;11456;47.030;15.396;2024-03-08T00:03:01;15.82;;;9.77;;
22579;SDS011;11456;47.030;15.396;2024-03-08T00:05:29;17.35;;;10.50;;
22579;SDS011;11456;47.030;15.396;2024-03-08T00:07:56;18.45;;;11.90;;
22579;SDS011;11456;47.030;15.396;2024-03-08T00:10:23;14.93;;;9.40;;
22579;SDS011;11456;47.030;15.396;2024-03-08T00:12:53;16.48;;;9.50;;
22579;SDS011;11456;47.030;15.396;2024-03-08T00:15:20;15.65;;;9.27;;
22579;SDS011;11456;47.030;15.396;2024-03-08T00:17:49;16.70;;;9.43;;
22579;SDS011;11456;47.030;15.396;2024-03-08T00:20:16;16.13;;;9.23;;
22579;SDS011;11456;47.030;15.396;2024-03-08T00:22:46;14.90;;;8.60;;
22579;SDS011;11456;47.030;15.396;2024-03-08T00:25:13;14.10;;;9.23;;
22579;SDS011;11456;47.030;15.396;2024-03-08T00:27:39;14.32;;;9.65;;
22579;SDS011;11456;47.030;15.396;2024-03-08T00:30:07;16.33;;;8.95;;
22579;SDS011;11456;47.030;15.396;2024-03-08T00:32:35;16.30;;;9.07;;
22579;SDS011;11456;47.030;15.396;2024-03-08T00:35:02;17.52;;;10.35;;
22579;SDS011;11456;47.030;15.396;2024-03-08T00:37:29;17.08;;;9.10;;
22579;SDS011;11456;47.030;15.396;2024-03-08T00:39:56;15.73;;;9.13;;
22579;SDS011;11456;47.030;15.396;2024-03-08T00:42:23;20.73;;;10.23;;
22579;SDS011;11456;47.030;15.396;2024-03-08T00:44:50;18.60;;;9.52;;
22579;SDS011;11456;47.030;15.396;2024-03-08T00:47:18;16.98;;;8.90;;
22579;SDS011;11456;47.030;15.396;2024-03-08T00:49:45;16.42;;;9.38;;
22579;SDS011;11456;47.030;15.396;2024-03-08T00:52:13;17.13;;;9.60;;
22579;SDS011;11456;47.030;15.396;2024-03-08T00:54:39;17.05;;;9.68;;
22579;SDS011;11456;47.030;15.396;2024-03-08T00:57:06;21.42;;;9.75;;
22579;SDS011;11456;47.030;15.396;2024-03-08T00:59:33;18.17;;;9.73;;
22579;SDS011;11456;47.030;15.396;2024-03-08T01:02:01;16.05;;;9.48;;
22579;SDS011;11456;47.030;15.396;2024-03-08T01:04:28;20.58;;;12.50;;
22579;SDS011;11456;47.030;15.396;2024-03-08T01:06:56;21.08;;;11.57;;
22579;SDS011;11456;47.030;15.396;2024-03-08T01:09:26;16.27;;;9.30;;
22579;SDS011;11456;47.030;15.396;2024-03-08T01:11:54;17.27;;;9.75;;
22579;SDS011;11456;47.030;15.396;2024-03-08T01:14:22;18.17;;;10.45;;
22579;SDS011;11456;47.030;15.396;2024-03-08T01:16:49;18.55;;;10.48;;
22579;SDS011;11456;47.030;15.396;2024-03-08T01:19:16;19.10;;;10.43;;
22579;SDS011;11456;47.030;15.396;2024-03-08T01:21:44;17.88;;;10.57;;
22579;SDS011;11456;47.030;15.396;2024-03-08T01:24:10;18.02;;;10.50;;
22579;SDS011;11456;47.030;15.396;2024-03-08T01:26:37;17.35;;;10.40;;
22579;SDS011;11456;47.030;15.396;2024-03-08T01:29:05;21.77;;;11.63;;
22579;SDS011;11456;47.030;15.396;2024-03-08T01:31:31;19.83;;;12.50;;
22579;SDS011;11456;47.030;15.396;2024-03-08T01:33:58;25.25;;;14.77;;
22579;SDS011;11456;47.030;15.396;2024-03-08T01:36:26;29.75;;;16.08;;
22579;SDS011;11456;47.030;15.396;2024-03-08T01:38:52;28.10;;;16.25;;
22579;SDS011;11456;47.030;15.396;2024-03-08T01:41:19;33.88;;;16.92;;
22579;SDS011;11456;47.030;15.396;2024-03-08T01:43:46;30.63;;;16.50;;
22579;SDS011;11456;47.030;15.396;2024-03-08T01:46:14;27.65;;;16.52;;
22579;SDS011;11456;47.030;15.396;2024-03-08T01:48:43;32.67;;;17.05;;
22579;SDS011;11456;47.030;15.396;2024-03-08T01:51:11;28.83;;;15.85;;
22579;SDS011;11456;47.030;15.396;2024-03-08T01:53:42;34.70;;;16.42;;
22579;SDS011;11456;47.030;15.396;2024-03-08T01:56:12;35.55;;;17.35;;
22579;SDS011;11456;47.030;15.396;2024-03-08T01:58:43;27.45;;;16.45;;
22579;SDS011;11456;47.030;15.396;2024-03-08T02:01:10;25.33;;;14.48;;
22579;SDS011;11456;47.030;15.396;2024-03-08T02:03:39;26.98;;;15.10;;
22579;SDS011;11456;47.030;15.396;2024-03-08T02:06:06;25.50;;;15.40;;
22579;SDS011;11456;47.030;15.396;2024-03-08T02:08:36;23.30;;;14.63;;
22579;SDS011;11456;47.030;15.396;2024-03-08T02:11:04;28.77;;;16.15;;
22579;SDS011;11456;47.030;15.396;2024-03-08T02:13:31;29.17;;;15.88;;
22579;SDS011;11456;47.030;15.396;2024-03-08T02:15:58;30.83;;;16.48;;
22579;SDS011;11456;47.030;15.396;2024-03-08T02:18:27;26.42;;;15.48;;
22579;SDS011;11456;47.030;15.396;2024-03-08T02:20:57;24.05;;;14.73;;
22579;SDS011;11456;47.030;15.396;2024-03-08T02:23:26;24.73;;;14.18;;
22579;SDS011;11456;47.030;15.396;2024-03-08T02:25:54;26.33;;;16.50;;
22579;SDS011;11456;47.030;15.396;2024-03-08T02:28:22;25.67;;;15.15;;
22579;SDS011;11456;47.030;15.396;2024-03-08T02:30:52;30.40;;;15.63;;
22579;SDS011;11456;47.030;15.396;2024-03-08T02:33:23;25.33;;;15.55;;
22579;SDS011;11456;47.030;15.396;2024-03-08T02:35:51;30.10;;;16.77;;
22579;SDS011;11456;47.030;15.396;2024-03-08T02:38:18;27.90;;;16.92;;
22579;SDS011;11456;47.030;15.396;2024-03-08T02:40:47;30.30;;;17.05;;
22579;SDS011;11456;47.030;15.396;2024-03-08T02:43:16;25.60;;;15.50;;
22579;SDS011;11456;47.030;15.396;2024-03-08T02:45:46;25.17;;;15.25;;
22579;SDS011;11456;47.030;15.396;2024-03-08T02:48:13;23.20;;;14.07;;
22579;SDS011;11456;47.030;15.396;2024-03-08T02:50:41;23.98;;;14.10;;
22579;SDS011;11456;47.030;15.396;2024-03-08T02:53:12;23.17;;;13.93;;
22579;SDS011;11456;47.030;15.396;2024-03-08T02:55:40;22.27;;;12.65;;
22579;SDS011;11456;47.030;15.396;2024-03-08T02:58:08;24.25;;;13.38;;
22579;SDS011;11456;47.030;15.396;2024-03-08T03:00:36;22.17;;;13.77;;
22579;SDS011;11456;47.030;15.396;2024-03-08T03:03:05;19.65;;;12.32;;
22579;SDS011;11456;47.030;15.396;2024-03-08T03:05:33;20.50;;;12.80;;
22579;SDS011;11456;47.030;15.396;2024-03-08T03:08:00;21.23;;;12.75;;
22579;SDS011;11456;47.030;15.396;2024-03-08T03:10:27;20.88;;;13.27;;
22579;SDS011;11456;47.030;15.396;2024-03-08T03:12:54;22.45;;;13.10;;
22579;SDS011;11456;47.030;15.396;2024-03-08T03:15:21;23.90;;;13.77;;
22579;SDS011;11456;47.030;15.396;2024-03-08T03:17:50;22.10;;;13.70;;
22579;SDS011;11456;47.030;15.396;2024-03-08T03:20:20;19.73;;;12.32;;
22579;SDS011;11456;47.030;15.396;2024-03-08T03:22:53;22.13;;;13.55;;
22579;SDS011;11456;47.030;15.396;2024-03-08T03:25:20;22.27;;;13.75;;
22579;SDS011;11456;47.030;15.396;2024-03-08T03:27:55;22.27;;;13.15;;
22579;SDS011;11456;47.030;15.396;2024-03-08T03:30:24;20.60;;;12.20;;
22579;SDS011;11456;47.030;15.396;2024-03-08T03:32:53;20.73;;;12.13;;
22579;SDS011;11456;47.030;15.396;2024-03-08T03:35:21;22.33;;;12.55;;
22579;SDS011;11456;47.030;15.396;2024-03-08T03:37:49;20.17;;;12.35;;
22579;SDS011;11456;47.030;15.396;2024-03-08T03:40:28;23.10;;;13.20;;
22579;SDS011;11456;47.030;15.396;2024-03-08T03:42:55;19.05;;;11.98;;
22579;SDS011;11456;47.030;15.396;2024-03-08T03:45:23;22.05;;;12.68;;
22579;SDS011;11456;47.030;15.396;2024-03-08T03:47:50;20.50;;;12.55;;
22579;SDS011;11456;47.030;15.396;2024-03-08T03:50:18;20.92;;;11.55;;
22579;SDS011;11456;47.030;15.396;2024-03-08T03:52:51;17.92;;;11.57;;
22579;SDS011;11456;47.030;15.396;2024-03-08T03:55:18;17.10;;;10.80;;
22579;SDS011;11456;47.030;15.396;2024-03-08T03:57:46;20.30;;;11.80;;
22579;SDS011;11456;47.030;15.396;2024-03-08T04:00:13;18.17;;;11.75;;
22579;SDS011;11456;47.030;15.396;2024-03-08T04:02:40;19.23;;;10.98;;
22579;SDS011;11456;47.030;15.396;2024-03-08T04:05:08;18.35;;;11.10;;
22579;SDS011;11456;47.030;15.396;2024-03-08T04:07:36;20.27;;;11.85;;
22579;SDS011;11456;47.030;15.396;2024-03-08T04:10:04;17.45;;;11.18;;
22579;SDS011;11456;47.030;15.396;2024-03-08T04:12:35;20.63;;;11.63;;
22579;SDS011;11456;47.030;15.396;2024-03-08T04:15:02;17.70;;;11.52;;
22579;SDS011;11456;47.030;15.396;2024-03-08T04:17:29;17.83;;;11.13;;
22579;SDS011;11456;47.030;15.396;2024-03-08T04:19:56;19.65;;;11.73;;
22579;SDS011;11456;47.030;15.396;2024-03-08T04:22:23;19.17;;;12.45;;
22579;SDS011;11456;47.030;15.396;2024-03-08T04:24:50;21.35;;;12.88;;
22579;SDS011;11456;47.030;15.396;2024-03-08T04:27:17;20.15;;;11.98;;
22579;SDS011;11456;47.030;15.396;2024-03-08T04:29:44;21.50;;;12.77;;
22579;SDS011;11456;47.030;15.396;2024-03-08T04:32:10;20.30;;;11.98;;
22579;SDS011;11456;47.030;15.396;2024-03-08T04:34:40;22.63;;;12.57;;
22579;SDS011;11456;47.030;15.396;2024-03-08T04:37:09;23.98;;;14.25;;
22579;SDS011;11456;47.030;15.396;2024-03-08T04:39:39;26.75;;;14.02;;
22579;SDS011;11456;47.030;15.396;2024-03-08T04:42:06;24.63;;;14.60;;
22579;SDS011;11456;47.030;15.396;2024-03-08T04:44:36;30.45;;;16.58;;
22579;SDS011;11456;47.030;15.396;2024-03-08T04:47:06;27.05;;;15.48;;
22579;SDS011;11456;47.030;15.396;2024-03-08T04:49:33;25.63;;;14.90;;
22579;SDS011;11456;47.030;15.396;2024-03-08T04:52:03;25.42;;;14.10;;
22579;SDS011;11456;47.030;15.396;2024-03-08T04:54:30;23.63;;;13.45;;
22579;SDS011;11456;47.030;15.396;2024-03-08T04:56:57;28.15;;;14.07;;
22579;SDS011;11456;47.030;15.396;2024-03-08T04:59:27;20.92;;;12.88;;
22579;SDS011;11456;47.030;15.396;2024-03-08T05:01:54;27.35;;;13.80;;
22579;SDS011;11456;47.030;15.396;2024-03-08T05:04:21;22.00;;;13.38;;
22579;SDS011;11456;47.030;15.396;2024-03-08T05:06:48;19.90;;;12.82;;
22579;SDS011;11456;47.030;15.396;2024-03-08T05:09:15;32.83;;;18.67;;
22579;SDS011;11456;47.030;15.396;2024-03-08T05:11:43;25.65;;;16.95;;
22579;SDS011;11456;47.030;15.396;2024-03-08T05:14:11;20.85;;;11.88;;
22579;SDS011;11456;47.030;15.396;2024-03-08T05:19:10;23.70;;;11.48;;
22579;SDS011;11456;47.030;15.396;2024-03-08T05:21:36;24.98;;;12.65;;
22579;SDS011;11456;47.030;15.396;2024-03-08T05:24:03;22.10;;;12.93;;
22579;SDS011;11456;47.030;15.396;2024-03-08T05:26:31;25.48;;;15.30;;
22579;SDS011;11456;47.030;15.396;2024-03-08T05:28:59;27.88;;;16.23;;
22579;SDS011;11456;47.030;15.396;2024-03-08T05:31:26;24.00;;;14.73;;
22579;SDS011;11456;47.030;15.396;2024-03-08T05:33:54;26.20;;;14.88;;
22579;SDS011;11456;47.030;15.396;2024-03-08T05:36:22;27.08;;;16.38;;
22579;SDS011;11456;47.030;15.396;2024-03-08T05:38:48;39.28;;;16.08;;
22579;SDS011;11456;47.030;15.396;2024-03-08T05:41:16;35.40;;;15.50;;
22579;SDS011;11456;47.030;15.396;2024-03-08T05:43:44;34.15;;;15.80;;
22579;SDS011;11456;47.030;15.396;2024-03-08T05:46:11;29.77;;;16.42;;
22579;SDS011;11456;47.030;15.396;2024-03-08T05:48:38;36.92;;;16.60;;
22579;SDS011;11456;47.030;15.396;2024-03-08T05:51:04;31.08;;;16.08;;
22579;SDS011;11456;47.030;15.396;2024-03-08T05:53:32;31.95;;;16.83;;
22579;SDS011;11456;47.030;15.396;2024-03-08T05:55:59;27.33;;;15.60;;
22579;SDS011;11456;47.030;15.396;2024-03-08T05:58:25;31.50;;;17.58;;
22579;SDS011;11456;47.030;15.396;2024-03-08T06:00:52;32.33;;;18.52;;
22579;SDS011;11456;47.030;15.396;2024-03-08T06:03:19;32.90;;;19.23;;
22579;SDS011;11456;47.030;15.396;2024-03-08T06:05:48;39.33;;;19.17;;
22579;SDS011;11456;47.030;15.396;2024-03-08T06:08:15;35.70;;;19.10;;
22579;SDS011;11456;47.030;15.396;2024-03-08T06:10:43;76.32;;;34.55;;
22579;SDS011;11456;47.030;15.396;2024-03-08T06:13:10;105.93;;;43.78;;
22579;SDS011;11456;47.030;15.396;2024-03-08T06:15:38;132.32;;;51.88;;
22579;SDS011;11456;47.030;15.396;2024-03-08T06:18:05;90.40;;;39.85;;
22579;SDS011;11456;47.030;15.396;2024-03-08T06:20:33;90.10;;;40.50;;
22579;SDS011;11456;47.030;15.396;2024-03-08T06:22:59;70.70;;;33.03;;
22579;SDS011;11456;47.030;15.396;2024-03-08T06:25:27;54.88;;;24.98;;
22579;SDS011;11456;47.030;15.396;2024-03-08T06:27:54;40.40;;;20.25;;
22579;SDS011;11456;47.030;15.396;2024-03-08T06:30:21;34.90;;;19.10;;
22579;SDS011;11456;47.030;15.396;2024-03-08T06:32:48;78.85;;;37.30;;
22579;SDS011;11456;47.030;15.396;2024-03-08T06:35:15;39.95;;;21.80;;
22579;SDS011;11456;47.030;15.396;2024-03-08T06:37:42;46.00;;;21.30;;
22579;SDS011;11456;47.030;15.396;2024-03-08T06:40:11;38.92;;;21.95;;
22579;SDS011;11456;47.030;15.396;2024-03-08T06:42:40;34.92;;;20.42;;
22579;SDS011;11456;47.030;15.396;2024-03-08T06:45:08;38.13;;;20.58;;
22579;SDS011;11456;47.030;15.396;2024-03-08T06:47:36;35.00;;;19.73;;
22579;SDS011;11456;47.030;15.396;2024-03-08T06:50:03;35.90;;;20.00;;
22579;SDS011;11456;47.030;15.396;2024-03-08T06:52:30;38.75;;;20.33;;
22579;SDS011;11456;47.030;15.396;2024-03-08T06:54:57;34.58;;;18.65;;
22579;SDS011;11456;47.030;15.396;2024-03-08T06:57:24;40.10;;;20.70;;
22579;SDS011;11456;47.030;15.396;2024-03-08T06:59:51;32.72;;;19.35;;
22579;SDS011;11456;47.030;15.396;2024-03-08T07:02:18;38.95;;;19.85;;
22579;SDS011;11456;47.030;15.396;2024-03-08T07:04:45;40.08;;;21.05;;
22579;SDS011;11456;47.030;15.396;2024-03-08T07:07:12;39.78;;;19.70;;
22579;SDS011;11456;47.030;15.396;2024-03-08T07:09:38;41.53;;;20.17;;
22579;SDS011;11456;47.030;15.396;2024-03-08T07:12:05;44.08;;;20.10;;
22579;SDS011;11456;47.030;15.396;2024-03-08T07:14:33;46.42;;;20.65;;
22579;SDS011;11456;47.030;15.396;2024-03-08T07:17:00;40.85;;;21.02;;
22579;SDS011;11456;47.030;15.396;2024-03-08T07:19:30;43.47;;;21.13;;
22579;SDS011;11456;47.030;15.396;2024-03-08T07:21:57;39.60;;;20.13;;
22579;SDS011;11456;47.030;15.396;2024-03-08T07:24:24;44.47;;;21.42;;
22579;SDS011;11456;47.030;15.396;2024-03-08T07:27:06;35.72;;;20.60;;
22579;SDS011;11456;47.030;15.396;2024-03-08T07:29:33;46.53;;;21.85;;
22579;SDS011;11456;47.030;15.396;2024-03-08T07:32:02;45.63;;;21.55;;
22579;SDS011;11456;47.030;15.396;2024-03-08T07:34:58;48.05;;;21.83;;
22579;SDS011;11456;47.030;15.396;2024-03-08T07:37:25;37.90;;;20.90;;
22579;SDS011;11456;47.030;15.396;2024-03-08T07:39:51;39.25;;;21.65;;
22579;SDS011;11456;47.030;15.396;2024-03-08T07:42:18;46.35;;;21.98;;
22579;SDS011;11456;47.030;15.396;2024-03-08T07:44:45;46.85;;;22.15;;
22579;SDS011;11456;47.030;15.396;2024-03-08T07:47:14;41.78;;;21.88;;
22579;SDS011;11456;47.030;15.396;2024-03-08T07:49:43;41.47;;;20.60;;
22579;SDS011;11456;47.030;15.396;2024-03-08T07:52:10;44.65;;;20.88;;
22579;SDS011;11456;47.030;15.396;2024-03-08T07:54:41;38.13;;;21.95;;
22579;SDS011;11456;47.030;15.396;2024-03-08T07:57:08;40.08;;;22.55;;
22579;SDS011;11456;47.030;15.396;2024-03-08T07:59:36;38.58;;;20.40;;
22579;SDS011;11456;47.030;15.396;2024-03-08T08:02:03;38.67;;;21.58;;
22579;SDS011;11456;47.030;15.396;2024-03-08T08:04:30;36.63;;;21.52;;
22579;SDS011;11456;47.030;15.396;2024-03-08T08:06:57;35.90;;;19.60;;
22579;SDS011;11456;47.030;15.396;2024-03-08T08:09:24;44.58;;;20.48;;
22579;SDS011;11456;47.030;15.396;2024-03-08T08:12:01;38.58;;;19.98;;
22579;SDS011;11456;47.030;15.396;2024-03-08T08:14:30;36.58;;;20.27;;
22579;SDS011;11456;47.030;15.396;2024-03-08T08:16:57;42.58;;;20.08;;
22579;SDS011;11456;47.030;15.396;2024-03-08T08:19:26;35.20;;;19.27;;
22579;SDS011;11456;47.030;15.396;2024-03-08T08:21:53;36.03;;;19.55;;
22579;SDS011;11456;47.030;15.396;2024-03-08T08:24:20;35.67;;;19.33;;
22579;SDS011;11456;47.030;15.396;2024-03-08T08:26:48;58.33;;;18.92;;
22579;SDS011;11456;47.030;15.396;2024-03-08T08:29:14;37.22;;;18.65;;
22579;SDS011;11456;47.030;15.396;2024-03-08T08:31:42;34.17;;;18.20;;
22579;SDS011;11456;47.030;15.396;2024-03-08T08:34:09;32.03;;;18.73;;
22579;SDS011;11456;47.030;15.396;2024-03-08T08:36:37;34.00;;;18.30;;
22579;SDS011;11456;47.030;15.396;2024-03-08T08:39:05;30.13;;;16.95;;
22579;SDS011;11456;47.030;15.396;2024-03-08T08:41:39;33.72;;;17.20;;
22579;SDS011;11456;47.030;15.396;2024-03-08T08:44:07;47.15;;;17.40;;
22579;SDS011;11456;47.030;15.396;2024-03-08T08:46:42;34.35;;;17.20;;
22579;SDS011;11456;47.030;15.396;2024-03-08T08:49:09;35.70;;;18.00;;
22579;SDS011;11456;47.030;15.396;2024-03-08T08:54:07;31.50;;;17.30;;
22579;SDS011;11456;47.030;15.396;2024-03-08T08:56:38;32.03;;;16.58;;
22579;SDS011;11456;47.030;15.396;2024-03-08T08:59:05;31.20;;;16.63;;
22579;SDS011;11456;47.030;15.396;2024-03-08T09:01:31;36.25;;;16.45;;
22579;SDS011;11456;47.030;15.396;2024-03-08T09:03:59;30.38;;;15.60;;
22579;SDS011;11456;47.030;15.396;2024-03-08T09:06:26;29.63;;;16.13;;
22579;SDS011;11456;47.030;15.396;2024-03-08T09:08:52;27.10;;;15.32;;
22579;SDS011;11456;47.030;15.396;2024-03-08T09:11:19;29.60;;;16.08;;
22579;SDS011;11456;47.030;15.396;2024-03-08T09:13:46;35.15;;;16.63;;
22579;SDS011;11456;47.030;15.396;2024-03-08T09:16:13;23.20;;;14.73;;
22579;SDS011;11456;47.030;15.396;2024-03-08T09:18:40;30.20;;;15.07;;
22579;SDS011;11456;47.030;15.396;2024-03-08T09:21:08;24.88;;;14.55;;
22579;SDS011;11456;47.030;15.396;2024-03-08T09:23:37;25.17;;;14.35;;
22579;SDS011;11456;47.030;15.396;2024-03-08T09:26:04;22.02;;;13.93;;
22579;SDS011;11456;47.030;15.396;2024-03-08T09:28:38;23.63;;;14.90;;
22579;SDS011;11456;47.030;15.396;2024-03-08T09:31:05;28.25;;;14.20;;
22579;SDS011;11456;47.030;15.396;2024-03-08T09:33:32;21.08;;;13.10;;
22579;SDS011;11456;47.030;15.396;2024-03-08T09:36:01;24.00;;;13.63;;
22579;SDS011;11456;47.030;15.396;2024-03-08T09:38:30;29.00;;;14.57;;
22579;SDS011;11456;47.030;15.396;2024-03-08T09:40:56;22.38;;;13.13;;
22579;SDS011;11456;47.030;15.396;2024-03-08T09:43:23;23.88;;;12.35;;
22579;SDS011;11456;47.030;15.396;2024-03-08T09:45:50;23.85;;;13.02;;
22579;SDS011;11456;47.030;15.396;2024-03-08T09:48:17;22.80;;;12.63;;
22579;SDS011;11456;47.030;15.396;2024-03-08T09:50:45;22.80;;;14.00;;
22579;SDS011;11456;47.030;15.396;2024-03-08T09:53:12;27.92;;;13.55;;
22579;SDS011;11456;47.030;15.396;2024-03-08T09:55:39;22.60;;;13.55;;
22579;SDS011;11456;47.030;15.396;2024-03-08T09:58:11;21.08;;;13.13;;
22579;SDS011;11456;47.030;15.396;2024-03-08T10:00:54;21.48;;;13.68;;
22579;SDS011;11456;47.030;15.396;2024-03-08T10:03:23;22.58;;;14.30;;
22579;SDS011;11456;47.030;15.396;2024-03-08T10:05:52;25.52;;;14.93;;
22579;SDS011;11456;47.030;15.396;2024-03-08T10:08:22;24.60;;;14.55;;
22579;SDS011;11456;47.030;15.396;2024-03-08T10:10:50;23.48;;;13.90;;
22579;SDS011;11456;47.030;15.396;2024-03-08T10:13:17;22.58;;;13.85;;
22579;SDS011;11456;47.030;15.396;2024-03-08T10:15:46;25.02;;;13.95;;
22579;SDS011;11456;47.030;15.396;2024-03-08T10:18:13;25.75;;;13.88;;
22579;SDS011;11456;47.030;15.396;2024-03-08T10:20:39;24.75;;;14.38;;
22579;SDS011;11456;47.030;15.396;2024-03-08T10:23:06;21.15;;;13.57;;
22579;SDS011;11456;47.030;15.396;2024-03-08T10:25:37;26.90;;;13.32;;
22579;SDS011;11456;47.030;15.396;2024-03-08T10:28:04;21.88;;;13.40;;
22579;SDS011;11456;47.030;15.396;2024-03-08T10:30:32;23.02;;;13.05;;
22579;SDS011;11456;47.030;15.396;2024-03-08T10:32:59;20.30;;;11.85;;
22579;SDS011;11456;47.030;15.396;2024-03-08T10:35:26;22.63;;;13.40;;
22579;SDS011;11456;47.030;15.396;2024-03-08T10:37:53;19.35;;;11.30;;
22579;SDS011;11456;47.030;15.396;2024-03-08T10:40:27;19.98;;;12.27;;
22579;SDS011;11456;47.030;15.396;2024-03-08T10:42:56;17.17;;;11.02;;
22579;SDS011;11456;47.030;15.396;2024-03-08T10:47:54;16.92;;;10.02;;
22579;SDS011;11456;47.030;15.396;2024-03-08T10:50:39;17.52;;;11.13;;
22579;SDS011;11456;47.030;15.396;2024-03-08T10:53:06;20.23;;;11.32;;
22579;SDS011;11456;47.030;15.396;2024-03-08T10:55:35;16.92;;;10.07;;
22579;SDS011;11456;47.030;15.396;2024-03-08T10:58:03;17.85;;;11.07;;
22579;SDS011;11456;47.030;15.396;2024-03-08T11:00:30;14.60;;;9.45;;
22579;SDS011;11456;47.030;15.396;2024-03-08T11:02:57;14.65;;;9.25;;
22579;SDS011;11456;47.030;15.396;2024-03-08T11:05:37;17.42;;;10.93;;
22579;SDS011;11456;47.030;15.396;2024-03-08T11:08:19;15.05;;;10.60;;
22579;SDS011;11456;47.030;15.396;2024-03-08T11:10:53;18.13;;;10.75;;
22579;SDS011;11456;47.030;15.396;2024-03-08T11:13:39;15.65;;;10.80;;
22579;SDS011;11456;47.030;15.396;2024-03-08T11:16:07;15.77;;;10.07;;
22579;SDS011;11456;47.030;15.396;2024-03-08T11:18:36;16.80;;;10.93;;
22579;SDS011;11456;47.030;15.396;2024-03-08T11:21:04;15.73;;;10.27;;
22579;SDS011;11456;47.030;15.396;2024-03-08T11:23:38;18.55;;;11.40;;
22579;SDS011;11456;47.030;15.396;2024-03-08T11:26:20;18.88;;;11.20;;
22579;SDS011;11456;47.030;15.396;2024-03-08T11:28:49;21.33;;;11.40;;
22579;SDS011;11456;47.030;15.396;2024-03-08T11:31:23;16.05;;;10.23;;
22579;SDS011;11456;47.030;15.396;2024-03-08T11:33:53;17.83;;;10.68;;
22579;SDS011;11456;47.030;15.396;2024-03-08T11:36:21;18.63;;;10.40;;
22579;SDS011;11456;47.030;15.396;2024-03-08T11:38:49;19.15;;;10.73;;
22579;SDS011;11456;47.030;15.396;2024-03-08T11:41:19;20.40;;;9.77;;
22579;SDS011;11456;47.030;15.396;2024-03-08T11:43:47;19.60;;;10.60;;
22579;SDS011;11456;47.030;15.396;2024-03-08T11:46:15;16.40;;;9.55;;
22579;SDS011;11456;47.030;15.396;2024-03-08T11:48:43;17.48;;;10.02;;
22579;SDS011;11456;47.030;15.396;2024-03-08T11:51:11;18.40;;;9.85;;
22579;SDS011;11456;47.030;15.396;2024-03-08T11:53:38;12.98;;;8.48;;
22579;SDS011;11456;47.030;15.396;2024-03-08T11:56:09;16.35;;;8.65;;
22579;SDS011;11456;47.030;15.396;2024-03-08T11:58:38;8.98;;;6.63;;
22579;SDS011;11456;47.030;15.396;2024-03-08T12:01:09;12.65;;;9.05;;
22579;SDS011;11456;47.030;15.396;2024-03-08T12:03:39;12.45;;;7.93;;
22579;SDS011;11456;47.030;15.396;2024-03-08T12:06:09;13.07;;;8.02;;
22579;SDS011;11456;47.030;15.396;2024-03-08T12:08:36;13.23;;;8.00;;
22579;SDS011;11456;47.030;15.396;2024-03-08T12:11:06;14.32;;;8.10;;
22579;SDS011;11456;47.030;15.396;2024-03-08T12:13:34;14.13;;;9.65;;
22579;SDS011;11456;47.030;15.396;2024-03-08T12:16:04;13.82;;;9.77;;
22579;SDS011;11456;47.030;15.396;2024-03-08T12:18:38;14.30;;;9.68;;
22579;SDS011;11456;47.030;15.396;2024-03-08T12:21:09;13.73;;;9.68;;
22579;SDS011;11456;47.030;15.396;2024-03-08T12:23:37;15.70;;;9.48;;
22579;SDS011;11456;47.030;15.396;2024-03-08T12:26:18;15.93;;;10.10;;
22579;SDS011;11456;47.030;15.396;2024-03-08T12:28:50;13.25;;;9.25;;
22579;SDS011;11456;47.030;15.396;2024-03-08T12:31:17;13.88;;;9.50;;
22579;SDS011;11456;47.030;15.396;2024-03-08T12:33:50;15.18;;;10.20;;
22579;SDS011;11456;47.030;15.396;2024-03-08T12:36:22;17.15;;;9.77;;
22579;SDS011;11456;47.030;15.396;2024-03-08T12:38:49;15.45;;;10.57;;
22579;SDS011;11456;47.030;15.396;2024-03-08T12:41:19;17.52;;;10.23;;
22579;SDS011;11456;47.030;15.396;2024-03-08T12:43:47;16.80;;;10.00;;
22579;SDS011;11456;47.030;15.396;2024-03-08T12:46:18;17.95;;;11.23;;
22579;SDS011;11456;47.030;15.396;2024-03-08T12:48:48;16.88;;;10.80;;
22579;SDS011;11456;47.030;15.396;2024-03-08T12:51:16;16.73;;;10.43;;
22579;SDS011;11456;47.030;15.396;2024-03-08T12:53:44;15.38;;;9.85;;
22579;SDS011;11456;47.030;15.396;2024-03-08T12:56:19;19.25;;;9.52;;
22579;SDS011;11456;47.030;15.396;2024-03-08T12:58:54;15.95;;;10.63;;
22579;SDS011;11456;47.030;15.396;2024-03-08T13:01:21;18.15;;;11.10;;
22579;SDS011;11456;47.030;15.396;2024-03-08T13:03:49;16.00;;;10.80;;
22579;SDS011;11456;47.030;15.396;2024-03-08T13:06:22;16.20;;;10.88;;
22579;SDS011;11456;47.030;15.396;2024-03-08T13:08:51;18.02;;;11.00;;
22579;SDS011;11456;47.030;15.396;2024-03-08T13:11:22;17.58;;;10.68;;
22579;SDS011;11456;47.030;15.396;2024-03-08T13:13:53;16.40;;;10.63;;
22579;SDS011;11456;47.030;15.396;2024-03-08T13:16:20;16.35;;;11.15;;
22579;SDS011;11456;47.030;15.396;2024-03-08T13:18:47;17.30;;;10.75;;
22579;SDS011;11456;47.030;15.396;2024-03-08T13:21:19;19.17;;;11.52;;
22579;SDS011;11456;47.030;15.396;2024-03-08T13:23:46;18.65;;;11.75;;
22579;SDS011;11456;47.030;15.396;2024-03-08T13:26:15;15.82;;;11.18;;
22579;SDS011;11456;47.030;15.396;2024-03-08T13:28:43;18.88;;;11.73;;
22579;SDS011;11456;47.030;15.396;2024-03-08T13:31:15;19.98;;;11.68;;
22579;SDS011;11456;47.030;15.396;2024-03-08T13:33:42;19.02;;;12.15;;
22579;SDS011;11456;47.030;15.396;2024-03-08T13:36:08;27.80;;;12.45;;
22579;SDS011;11456;47.030;15.396;2024-03-08T13:38:47;21.42;;;12.63;;
22579;SDS011;11456;47.030;15.396;2024-03-08T13:41:15;23.77;;;12.40;;
22579;SDS011;11456;47.030;15.396;2024-03-08T13:43:45;22.90;;;13.13;;
22579;SDS011;11456;47.030;15.396;2024-03-08T13:46:16;20.75;;;12.23;;
22579;SDS011;11456;47.030;15.396;2024-03-08T13:48:43;19.42;;;12.38;;
22579;SDS011;11456;47.030;15.396;2024-03-08T13:51:10;20.13;;;12.73;;
22579;SDS011;11456;47.030;15.396;2024-03-08T13:53:42;15.10;;;9.75;;
22579;SDS011;11456;47.030;15.396;2024-03-08T13:56:08;19.33;;;12.40;;
22579;SDS011;11456;47.030;15.396;2024-03-08T13:58:37;20.88;;;12.85;;
22579;SDS011;11456;47.030;15.396;2024-03-08T14:01:06;21.75;;;12.30;;
22579;SDS011;11456;47.030;15.396;2024-03-08T14:03:38;22.63;;;12.45;;
22579;SDS011;11456;47.030;15.396;2024-03-08T14:06:08;21.77;;;11.77;;
22579;SDS011;11456;47.030;15.396;2024-03-08T14:08:36;22.95;;;13.02;;
22579;SDS011;11456;47.030;15.396;2024-03-08T14:11:06;22.23;;;13.38;;
22579;SDS011;11456;47.030;15.396;2024-03-08T14:13:42;20.77;;;13.48;;
22579;SDS011;11456;47.030;15.396;2024-03-08T14:16:12;24.75;;;13.50;;
22579;SDS011;11456;47.030;15.396;2024-03-08T14:18:39;22.98;;;13.82;;
22579;SDS011;11456;47.030;15.396;2024-03-08T14:21:06;23.60;;;13.70;;
22579;SDS011;11456;47.030;15.396;2024-03-08T14:23:37;21.15;;;13.23;;
22579;SDS011;11456;47.030;15.396;2024-03-08T14:26:04;19.92;;;13.20;;